EZY128H EGBB-EGPH
Flight info
| Callsign | EZY128H |
|---|---|
| Flight time | 0h 50m |
| Altitude | 28000 |
| Route | LUVUM DCT TNT N57 POL UN601 RIBEL DCT INPIP |
| Aircraft | A320/M-SDE3FGHIRWY/LB1 |
Departure
| Time | 2026-04-21 19:05 |
|---|---|
| Airport | Birmingham Airport (EGBB) |
Arrival
| Time | 2026-04-21 19:56 |
|---|---|
| Airport | Edinburgh Airport (EGPH) |
| Time | Latitude | Longitude | Altitude | Speed | Heading |
|---|---|---|---|---|---|
| 2026-04-21 18:18 | 52.45063 | -1.73270 | 321 ft | 0 kts | 326° |
| 2026-04-21 18:18 | 52.45063 | -1.73269 | 321 ft | 0 kts | 326° |
| 2026-04-21 18:19 | 52.45062 | -1.73269 | 321 ft | 0 kts | 325° |
| 2026-04-21 18:49 | 52.45053 | -1.73259 | 323 ft | 4 kts | 322° |
| 2026-04-21 18:49 | 52.45030 | -1.73218 | 322 ft | 4 kts | 283° |
| 2026-04-21 18:50 | 52.45028 | -1.73206 | 321 ft | 4 kts | 255° |
| 2026-04-21 18:50 | 52.45012 | -1.73238 | 323 ft | 3 kts | 235° |
| 2026-04-21 18:50 | 52.45011 | -1.73243 | 323 ft | 0 kts | 236° |
| 2026-04-21 18:52 | 52.45010 | -1.73245 | 323 ft | 1 kts | 236° |
| 2026-04-21 18:52 | 52.45007 | -1.73251 | 322 ft | 2 kts | 236° |
| 2026-04-21 18:53 | 52.44990 | -1.73291 | 323 ft | 5 kts | 235° |
| 2026-04-21 18:53 | 52.44970 | -1.73341 | 323 ft | 6 kts | 236° |
| 2026-04-21 18:53 | 52.44945 | -1.73400 | 322 ft | 7 kts | 236° |
| 2026-04-21 18:53 | 52.44919 | -1.73463 | 323 ft | 6 kts | 236° |
| 2026-04-21 18:54 | 52.44898 | -1.73525 | 323 ft | 6 kts | 251° |
| 2026-04-21 18:54 | 52.44911 | -1.73606 | 323 ft | 11 kts | 309° |
| 2026-04-21 18:54 | 52.44984 | -1.73688 | 323 ft | 13 kts | 327° |
| 2026-04-21 18:54 | 52.45058 | -1.73753 | 323 ft | 13 kts | 342° |
| 2026-04-21 18:55 | 52.45121 | -1.73798 | 323 ft | 16 kts | 328° |
| 2026-04-21 18:55 | 52.45239 | -1.73930 | 323 ft | 15 kts | 326° |
| 2026-04-21 18:55 | 52.45311 | -1.74036 | 323 ft | 14 kts | 303° |
| 2026-04-21 18:55 | 52.45352 | -1.74171 | 323 ft | 13 kts | 295° |
| 2026-04-21 18:56 | 52.45392 | -1.74298 | 322 ft | 12 kts | 298° |
| 2026-04-21 18:56 | 52.45427 | -1.74419 | 323 ft | 11 kts | 295° |
| 2026-04-21 18:56 | 52.45461 | -1.74530 | 322 ft | 10 kts | 298° |
| 2026-04-21 18:56 | 52.45509 | -1.74612 | 323 ft | 11 kts | 324° |
| 2026-04-21 18:57 | 52.45595 | -1.74706 | 320 ft | 19 kts | 327° |
| 2026-04-21 18:57 | 52.45723 | -1.74850 | 312 ft | 25 kts | 327° |
| 2026-04-21 18:57 | 52.45878 | -1.75018 | 307 ft | 28 kts | 328° |
| 2026-04-21 18:57 | 52.46043 | -1.75203 | 304 ft | 28 kts | 323° |
| 2026-04-21 18:58 | 52.46207 | -1.75387 | 304 ft | 29 kts | 326° |
| 2026-04-21 18:58 | 52.46379 | -1.75576 | 301 ft | 30 kts | 325° |
| 2026-04-21 18:58 | 52.46507 | -1.75719 | 303 ft | 13 kts | 327° |
| 2026-04-21 18:58 | 52.46568 | -1.75788 | 307 ft | 9 kts | 325° |
| 2026-04-21 18:59 | 52.46611 | -1.75838 | 309 ft | 6 kts | 325° |
| 2026-04-21 18:59 | 52.46632 | -1.75881 | 308 ft | 4 kts | 289° |
| 2026-04-21 18:59 | 52.46629 | -1.75923 | 306 ft | 4 kts | 250° |
| 2026-04-21 18:59 | 52.46625 | -1.75937 | 306 ft | 0 kts | 243° |
| 2026-04-21 19:02 | 52.46624 | -1.75939 | 307 ft | 2 kts | 244° |
| 2026-04-21 19:02 | 52.46612 | -1.75973 | 306 ft | 5 kts | 237° |
| 2026-04-21 19:03 | 52.46593 | -1.76019 | 305 ft | 5 kts | 236° |
| 2026-04-21 19:03 | 52.46576 | -1.76059 | 305 ft | 4 kts | 234° |
| 2026-04-21 19:03 | 52.46559 | -1.76091 | 305 ft | 2 kts | 212° |
| 2026-04-21 19:03 | 52.46548 | -1.76090 | 306 ft | 1 kts | 167° |
| 2026-04-21 19:04 | 52.46542 | -1.76083 | 306 ft | 0 kts | 147° |
| 2026-04-21 19:04 | 52.46350 | -1.75873 | 310 ft | 71 kts | 146° |
| 2026-04-21 19:05 | 52.45758 | -1.75212 | 324 ft | 131 kts | 145° |
| 2026-04-21 19:05 | 52.44897 | -1.74195 | 457 ft | 166 kts | 140° |
| 2026-04-21 19:05 | 52.43945 | -1.73115 | 1174 ft | 167 kts | 139° |
| 2026-04-21 19:05 | 52.42979 | -1.72059 | 1890 ft | 171 kts | 138° |
| 2026-04-21 19:06 | 52.41934 | -1.70897 | 2320 ft | 191 kts | 138° |
| 2026-04-21 19:06 | 52.40888 | -1.69571 | 3156 ft | 186 kts | 123° |
| 2026-04-21 19:06 | 52.40383 | -1.67681 | 3943 ft | 186 kts | 93° |
| 2026-04-21 19:06 | 52.40557 | -1.65546 | 4636 ft | 194 kts | 78° |
| 2026-04-21 19:07 | 52.40891 | -1.63384 | 5440 ft | 198 kts | 70° |
| 2026-04-21 19:07 | 52.41723 | -1.61543 | 6157 ft | 213 kts | 43° |
| 2026-04-21 19:07 | 52.43183 | -1.60571 | 6546 ft | 249 kts | 9° |
| 2026-04-21 19:07 | 52.45003 | -1.60632 | 7074 ft | 269 kts | 1° |
| 2026-04-21 19:08 | 52.46897 | -1.60829 | 7877 ft | 276 kts | 0° |
| 2026-04-21 19:08 | 52.48829 | -1.61061 | 8718 ft | 281 kts | 0° |
| 2026-04-21 19:08 | 52.50795 | -1.61296 | 9567 ft | 285 kts | 360° |
| 2026-04-21 19:08 | 52.52789 | -1.61526 | 10388 ft | 290 kts | 360° |
| 2026-04-21 19:09 | 52.54872 | -1.61746 | 10778 ft | 311 kts | 0° |
| 2026-04-21 19:09 | 52.57104 | -1.61969 | 11238 ft | 326 kts | 360° |
| 2026-04-21 19:09 | 52.59389 | -1.62204 | 11878 ft | 331 kts | 359° |
| 2026-04-21 19:09 | 52.61676 | -1.62444 | 12647 ft | 335 kts | 360° |
| 2026-04-21 19:10 | 52.64017 | -1.62686 | 13433 ft | 339 kts | 359° |
| 2026-04-21 19:10 | 52.66413 | -1.62930 | 14201 ft | 342 kts | 359° |
| 2026-04-21 19:10 | 52.68772 | -1.63169 | 14880 ft | 345 kts | 359° |
| 2026-04-21 19:10 | 52.71213 | -1.63422 | 15566 ft | 349 kts | 359° |
| 2026-04-21 19:11 | 52.73611 | -1.63673 | 16344 ft | 351 kts | 359° |
| 2026-04-21 19:11 | 52.76061 | -1.63928 | 17013 ft | 354 kts | 359° |
| 2026-04-21 19:11 | 52.78536 | -1.64182 | 17688 ft | 358 kts | 360° |
| 2026-04-21 19:11 | 52.81029 | -1.64440 | 18344 ft | 361 kts | 358° |
| 2026-04-21 19:12 | 52.82727 | -1.64619 | 18764 ft | 363 kts | 358° |
| 2026-04-21 19:12 | 52.86086 | -1.64979 | 19549 ft | 366 kts | 358° |
| 2026-04-21 19:12 | 52.88628 | -1.65249 | 20183 ft | 366 kts | 357° |
| 2026-04-21 19:12 | 52.91176 | -1.65516 | 20804 ft | 368 kts | 356° |
| 2026-04-21 19:13 | 52.93729 | -1.65781 | 21471 ft | 367 kts | 355° |
| 2026-04-21 19:13 | 52.96279 | -1.66046 | 22096 ft | 367 kts | 355° |
| 2026-04-21 19:13 | 52.98836 | -1.66312 | 22649 ft | 370 kts | 355° |
| 2026-04-21 19:13 | 53.01420 | -1.66580 | 23140 ft | 374 kts | 355° |
| 2026-04-21 19:14 | 53.04027 | -1.66881 | 23563 ft | 378 kts | 352° |
| 2026-04-21 19:14 | 53.06622 | -1.67773 | 24009 ft | 381 kts | 341° |
| 2026-04-21 19:14 | 53.09112 | -1.69285 | 24494 ft | 381 kts | 338° |
| 2026-04-21 19:14 | 53.11588 | -1.70830 | 25024 ft | 380 kts | 338° |
| 2026-04-21 19:15 | 53.14067 | -1.72372 | 25485 ft | 381 kts | 338° |
| 2026-04-21 19:15 | 53.16560 | -1.73917 | 25926 ft | 383 kts | 338° |
| 2026-04-21 19:15 | 53.19057 | -1.75457 | 26402 ft | 383 kts | 338° |
| 2026-04-21 19:15 | 53.21552 | -1.76999 | 26891 ft | 382 kts | 337° |
| 2026-04-21 19:16 | 53.24044 | -1.78548 | 27398 ft | 382 kts | 337° |
| 2026-04-21 19:16 | 53.26539 | -1.80103 | 27839 ft | 383 kts | 337° |
| 2026-04-21 19:16 | 53.29034 | -1.81662 | 28265 ft | 383 kts | 336° |
| 2026-04-21 19:16 | 53.30687 | -1.82698 | 28375 ft | 382 kts | 336° |
| 2026-04-21 19:17 | 53.35481 | -1.85696 | 28403 ft | 356 kts | 336° |
| 2026-04-21 19:17 | 53.40102 | -1.88595 | 28407 ft | 353 kts | 336° |
| 2026-04-21 19:18 | 53.44700 | -1.91492 | 28413 ft | 352 kts | 336° |
| 2026-04-21 19:18 | 53.49286 | -1.94386 | 28413 ft | 352 kts | 336° |
| 2026-04-21 19:19 | 53.53874 | -1.97287 | 28410 ft | 352 kts | 336° |
| 2026-04-21 19:19 | 53.58457 | -2.00188 | 28406 ft | 352 kts | 336° |
| 2026-04-21 19:20 | 53.63035 | -2.03103 | 28406 ft | 351 kts | 336° |
| 2026-04-21 19:20 | 53.67606 | -2.06014 | 28404 ft | 351 kts | 336° |
| 2026-04-21 19:21 | 53.72189 | -2.08926 | 28385 ft | 351 kts | 336° |
| 2026-04-21 19:21 | 53.76726 | -2.11858 | 28395 ft | 351 kts | 335° |
| 2026-04-21 19:22 | 53.81261 | -2.14953 | 28390 ft | 351 kts | 334° |
| 2026-04-21 19:22 | 53.85794 | -2.18089 | 28398 ft | 352 kts | 334° |
| 2026-04-21 19:23 | 53.90355 | -2.21230 | 28398 ft | 352 kts | 334° |
| 2026-04-21 19:23 | 53.94871 | -2.24326 | 28410 ft | 352 kts | 335° |
| 2026-04-21 19:24 | 53.99413 | -2.27436 | 28417 ft | 352 kts | 335° |
| 2026-04-21 19:24 | 54.03968 | -2.30565 | 28415 ft | 353 kts | 335° |
| 2026-04-21 19:25 | 54.08527 | -2.33728 | 28403 ft | 354 kts | 335° |
| 2026-04-21 19:25 | 54.13101 | -2.36912 | 28413 ft | 355 kts | 335° |
| 2026-04-21 19:26 | 54.17675 | -2.40085 | 28417 ft | 355 kts | 335° |
| 2026-04-21 19:26 | 54.22257 | -2.43260 | 28438 ft | 355 kts | 335° |
| 2026-04-21 19:27 | 54.26850 | -2.46459 | 28417 ft | 358 kts | 335° |
| 2026-04-21 19:27 | 54.31478 | -2.49684 | 28416 ft | 360 kts | 335° |
| 2026-04-21 19:28 | 54.36130 | -2.52944 | 28422 ft | 362 kts | 335° |
| 2026-04-21 19:28 | 54.40793 | -2.56235 | 28427 ft | 363 kts | 335° |
| 2026-04-21 19:29 | 54.45466 | -2.59527 | 28430 ft | 363 kts | 335° |
| 2026-04-21 19:29 | 54.50149 | -2.62821 | 28431 ft | 364 kts | 335° |
| 2026-04-21 19:30 | 54.54848 | -2.66159 | 28430 ft | 367 kts | 336° |
| 2026-04-21 19:30 | 54.59586 | -2.69517 | 28428 ft | 368 kts | 335° |
| 2026-04-21 19:31 | 54.64285 | -2.72850 | 28466 ft | 367 kts | 335° |
| 2026-04-21 19:31 | 54.68996 | -2.76201 | 28473 ft | 366 kts | 335° |
| 2026-04-21 19:32 | 54.73693 | -2.79567 | 28475 ft | 366 kts | 336° |
| 2026-04-21 19:32 | 54.78420 | -2.82961 | 28457 ft | 369 kts | 335° |
| 2026-04-21 19:33 | 54.80004 | -2.84097 | 28312 ft | 363 kts | 336° |
| 2026-04-21 19:33 | 54.83069 | -2.86303 | 27723 ft | 358 kts | 336° |
| 2026-04-21 19:33 | 54.85361 | -2.87957 | 27209 ft | 356 kts | 336° |
| 2026-04-21 19:33 | 54.87647 | -2.89601 | 26725 ft | 354 kts | 336° |
| 2026-04-21 19:34 | 54.89924 | -2.91237 | 26238 ft | 353 kts | 336° |
| 2026-04-21 19:34 | 54.92193 | -2.92871 | 25714 ft | 353 kts | 337° |
| 2026-04-21 19:34 | 54.94468 | -2.94519 | 25183 ft | 354 kts | 337° |
| 2026-04-21 19:34 | 54.96747 | -2.96174 | 24663 ft | 355 kts | 338° |
| 2026-04-21 19:35 | 54.99031 | -2.97834 | 24115 ft | 358 kts | 338° |
| 2026-04-21 19:35 | 55.03637 | -3.01184 | 23050 ft | 358 kts | 338° |
| 2026-04-21 19:35 | 55.05923 | -3.02846 | 22625 ft | 355 kts | 339° |
| 2026-04-21 19:36 | 55.08200 | -3.04504 | 22148 ft | 354 kts | 339° |
| 2026-04-21 19:36 | 55.10476 | -3.06168 | 21650 ft | 354 kts | 339° |
| 2026-04-21 19:36 | 55.12744 | -3.07831 | 21259 ft | 351 kts | 339° |
| 2026-04-21 19:36 | 55.14985 | -3.09476 | 20888 ft | 348 kts | 338° |
| 2026-04-21 19:37 | 55.17220 | -3.11111 | 20465 ft | 347 kts | 339° |
| 2026-04-21 19:37 | 55.19447 | -3.12740 | 20055 ft | 346 kts | 339° |
| 2026-04-21 19:37 | 55.21661 | -3.14365 | 19667 ft | 344 kts | 339° |
| 2026-04-21 19:37 | 55.23836 | -3.15962 | 19304 ft | 342 kts | 339° |
| 2026-04-21 19:38 | 55.26026 | -3.17570 | 18934 ft | 340 kts | 339° |
| 2026-04-21 19:38 | 55.28217 | -3.19128 | 18532 ft | 338 kts | 345° |
| 2026-04-21 19:38 | 55.29747 | -3.19810 | 18278 ft | 334 kts | 354° |
| 2026-04-21 19:38 | 55.32773 | -3.19964 | 17813 ft | 325 kts | 8° |
| 2026-04-21 19:39 | 55.35021 | -3.19602 | 17431 ft | 324 kts | 8° |
| 2026-04-21 19:39 | 55.37258 | -3.19254 | 17084 ft | 322 kts | 8° |
| 2026-04-21 19:39 | 55.39479 | -3.18918 | 16745 ft | 320 kts | 8° |
| 2026-04-21 19:39 | 55.41688 | -3.18586 | 16422 ft | 318 kts | 8° |
| 2026-04-21 19:40 | 55.43884 | -3.18248 | 16110 ft | 316 kts | 8° |
| 2026-04-21 19:40 | 55.46064 | -3.17909 | 15790 ft | 313 kts | 8° |
| 2026-04-21 19:40 | 55.48229 | -3.17572 | 15466 ft | 311 kts | 9° |
| 2026-04-21 19:40 | 55.50385 | -3.17233 | 15129 ft | 309 kts | 8° |
| 2026-04-21 19:41 | 55.52525 | -3.16896 | 14878 ft | 306 kts | 8° |
| 2026-04-21 19:41 | 55.54618 | -3.16565 | 14576 ft | 301 kts | 8° |
| 2026-04-21 19:41 | 55.56724 | -3.16226 | 13684 ft | 307 kts | 8° |
| 2026-04-21 19:41 | 55.58868 | -3.15880 | 12769 ft | 312 kts | 8° |
| 2026-04-21 19:42 | 55.61037 | -3.15533 | 11890 ft | 314 kts | 8° |
| 2026-04-21 19:42 | 55.63214 | -3.15183 | 11036 ft | 315 kts | 8° |
| 2026-04-21 19:42 | 55.65386 | -3.14866 | 10408 ft | 309 kts | 5° |
| 2026-04-21 19:42 | 55.67450 | -3.15563 | 9755 ft | 310 kts | 336° |
| 2026-04-21 19:43 | 55.69082 | -3.17927 | 9362 ft | 302 kts | 308° |
| 2026-04-21 19:43 | 55.69891 | -3.21267 | 8937 ft | 293 kts | 278° |
| 2026-04-21 19:43 | 55.69761 | -3.24767 | 8523 ft | 281 kts | 252° |
| 2026-04-21 19:43 | 55.69181 | -3.28028 | 8110 ft | 273 kts | 251° |
| 2026-04-21 19:44 | 55.68606 | -3.31181 | 7698 ft | 265 kts | 251° |
| 2026-04-21 19:44 | 55.68043 | -3.34251 | 7312 ft | 259 kts | 251° |
| 2026-04-21 19:44 | 55.67484 | -3.37308 | 6906 ft | 262 kts | 251° |
| 2026-04-21 19:44 | 55.66922 | -3.40386 | 6478 ft | 264 kts | 251° |
| 2026-04-21 19:45 | 55.66363 | -3.43446 | 6247 ft | 258 kts | 251° |
| 2026-04-21 19:45 | 55.65817 | -3.46433 | 6066 ft | 250 kts | 250° |
| 2026-04-21 19:45 | 55.65284 | -3.49333 | 5990 ft | 246 kts | 250° |
| 2026-04-21 19:45 | 55.64826 | -3.52246 | 5995 ft | 247 kts | 262° |
| 2026-04-21 19:46 | 55.64896 | -3.55254 | 5751 ft | 244 kts | 286° |
| 2026-04-21 19:46 | 55.65591 | -3.57942 | 5455 ft | 237 kts | 311° |
| 2026-04-21 19:46 | 55.66702 | -3.59971 | 5329 ft | 225 kts | 323° |
| 2026-04-21 19:46 | 55.67850 | -3.61794 | 5196 ft | 219 kts | 323° |
| 2026-04-21 19:47 | 55.68962 | -3.63589 | 5057 ft | 213 kts | 323° |
| 2026-04-21 19:47 | 55.70071 | -3.65289 | 4924 ft | 208 kts | 326° |
| 2026-04-21 19:47 | 55.71177 | -3.66906 | 4745 ft | 205 kts | 326° |
| 2026-04-21 19:47 | 55.72267 | -3.68480 | 4539 ft | 205 kts | 326° |
| 2026-04-21 19:48 | 55.73384 | -3.70090 | 4333 ft | 203 kts | 326° |
| 2026-04-21 19:48 | 55.74464 | -3.71647 | 4144 ft | 202 kts | 326° |
| 2026-04-21 19:48 | 55.75563 | -3.73248 | 4025 ft | 202 kts | 324° |
| 2026-04-21 19:48 | 55.76591 | -3.74960 | 4002 ft | 203 kts | 321° |
| 2026-04-21 19:49 | 55.77596 | -3.76726 | 3999 ft | 202 kts | 324° |
| 2026-04-21 19:49 | 55.78792 | -3.77873 | 3999 ft | 192 kts | 354° |
| 2026-04-21 19:49 | 55.80074 | -3.77922 | 3998 ft | 181 kts | 20° |
| 2026-04-21 19:49 | 55.81179 | -3.77019 | 4002 ft | 172 kts | 44° |
| 2026-04-21 19:50 | 55.81723 | -3.76033 | 3995 ft | 167 kts | 59° |
| 2026-04-21 19:50 | 55.82539 | -3.73689 | 4004 ft | 167 kts | 62° |
| 2026-04-21 19:50 | 55.83147 | -3.71924 | 4006 ft | 167 kts | 62° |
| 2026-04-21 19:50 | 55.83757 | -3.70154 | 4010 ft | 168 kts | 62° |
| 2026-04-21 19:51 | 55.84368 | -3.68376 | 3976 ft | 169 kts | 62° |
| 2026-04-21 19:51 | 55.84979 | -3.66600 | 3816 ft | 168 kts | 62° |
| 2026-04-21 19:51 | 55.85586 | -3.64832 | 3614 ft | 168 kts | 62° |
| 2026-04-21 19:51 | 55.86196 | -3.63051 | 3379 ft | 169 kts | 62° |
| 2026-04-21 19:52 | 55.86810 | -3.61261 | 3153 ft | 170 kts | 62° |
| 2026-04-21 19:52 | 55.87428 | -3.59459 | 2917 ft | 171 kts | 62° |
| 2026-04-21 19:52 | 55.88044 | -3.57658 | 2695 ft | 167 kts | 62° |
| 2026-04-21 19:52 | 55.88618 | -3.55983 | 2459 ft | 155 kts | 61° |
| 2026-04-21 19:53 | 55.89170 | -3.54369 | 2242 ft | 150 kts | 61° |
| 2026-04-21 19:53 | 55.89710 | -3.52787 | 2030 ft | 148 kts | 61° |
| 2026-04-21 19:53 | 55.90246 | -3.51217 | 1815 ft | 148 kts | 61° |
| 2026-04-21 19:53 | 55.90783 | -3.49643 | 1609 ft | 149 kts | 61° |
| 2026-04-21 19:54 | 55.91317 | -3.48075 | 1409 ft | 147 kts | 61° |
| 2026-04-21 19:54 | 55.91845 | -3.46525 | 1186 ft | 143 kts | 60° |
| 2026-04-21 19:54 | 55.92343 | -3.45066 | 1008 ft | 130 kts | 60° |
| 2026-04-21 19:54 | 55.92799 | -3.43725 | 828 ft | 124 kts | 60° |
| 2026-04-21 19:55 | 55.93241 | -3.42425 | 646 ft | 121 kts | 60° |
| 2026-04-21 19:55 | 55.93687 | -3.41136 | 470 ft | 121 kts | 59° |
| 2026-04-21 19:55 | 55.94122 | -3.39845 | 313 ft | 121 kts | 60° |
| 2026-04-21 19:55 | 55.94558 | -3.38561 | 148 ft | 119 kts | 60° |
| 2026-04-21 19:56 | 55.94957 | -3.37372 | 112 ft | 98 kts | 59° |
| 2026-04-21 19:56 | 55.95215 | -3.36620 | 113 ft | 36 kts | 58° |
| 2026-04-21 19:56 | 55.95242 | -3.36412 | 109 ft | 13 kts | 132° |
| 2026-04-21 19:56 | 55.95193 | -3.36353 | 114 ft | 6 kts | 148° |
| 2026-04-21 19:57 | 55.95187 | -3.36345 | 115 ft | 0 kts | 149° |
| 2026-04-21 19:57 | 55.95185 | -3.36344 | 115 ft | 2 kts | 149° |
| 2026-04-21 19:57 | 55.95171 | -3.36329 | 113 ft | 1 kts | 149° |
| 2026-04-21 19:57 | 55.95164 | -3.36322 | 115 ft | 4 kts | 150° |
| 2026-04-21 19:58 | 55.95114 | -3.36343 | 113 ft | 9 kts | 235° |
| 2026-04-21 19:58 | 55.95083 | -3.36434 | 115 ft | 8 kts | 239° |
| 2026-04-21 19:58 | 55.95056 | -3.36514 | 115 ft | 7 kts | 238° |
| 2026-04-21 19:58 | 55.95016 | -3.36632 | 113 ft | 16 kts | 239° |
| 2026-04-21 19:59 | 55.94980 | -3.36739 | 114 ft | 14 kts | 239° |
| 2026-04-21 19:59 | 55.94931 | -3.36826 | 116 ft | 8 kts | 186° |
| 2026-04-21 19:59 | 55.94882 | -3.36789 | 113 ft | 7 kts | 154° |
| 2026-04-21 19:59 | 55.94837 | -3.36779 | 116 ft | 6 kts | 178° |
| 2026-04-21 20:00 | 55.94798 | -3.36777 | 116 ft | 5 kts | 175° |
| 2026-04-21 20:00 | 55.94756 | -3.36753 | 113 ft | 6 kts | 159° |
| 2026-04-21 20:00 | 55.94717 | -3.36737 | 115 ft | 6 kts | 174° |
| 2026-04-21 20:00 | 55.94679 | -3.36735 | 116 ft | 5 kts | 179° |
| 2026-04-21 20:01 | 55.94642 | -3.36734 | 116 ft | 5 kts | 179° |
| 2026-04-21 20:01 | 55.94614 | -3.36712 | 113 ft | 4 kts | 121° |
| 2026-04-21 20:01 | 55.94612 | -3.36659 | 115 ft | 4 kts | 89° |
| 2026-04-21 20:01 | 55.94612 | -3.36627 | 116 ft | 1 kts | 89° |